Pagrindinis puslapis
METAR-TAF:

METAR-TAF

Oro uostai :

Turaif, Saudo Arabija

platuma: 31-41N, ilguma: 038-44E, Aukštis: 813 m

Dabartinis oras

Ataskaita buvo paskelbta 54 minutes, ne 10:00 UTC
Vėjas 6 kt iš Pietryčių
Temperatūra 31°C
Drėgmė 13%
Slėgis 1010 hPa
Matomumas 10 km arba daugiau
nėra debesų žemiau 1500 m ir nėra kamuolinių lietaus debesų

METAR: OETR 201000Z 14006KT CAVOK 31/M01 Q1010 NOSIG

Laikas: 13:54 (10:54 UTC)

Prognozė

Ataskaita buvo paskelbta 11 valandos ir 54 minutes, ne 23:00 UTC
Prognozė galioja nuo 20 metu 00 UTC su 21 metu 06 UTC
Vėjas 6 kt iš Šiaurės/Šiaurės Rytų
Matomumas 10 km arba daugiau
nėra debesų žemiau 1500 m ir nėra kamuolinių lietaus debesų
Tapsmas
nuo 20 metu 06 UTC su 20 metu 08 UTC
Vėjas 14 kt iš Rytų
Tapsmas
nuo 20 metu 16 UTC su 20 metu 18 UTC
Vėjas 14 kt iš Šiaurės

TAF: OETR 192300Z 2000/2106 02006KT CAVOK BECMG 2006/2008 08014KT BECMG 2016/2018 36014KT

Orai ataskaitas ir orų prognozės (METAR, TAF).

turimą stotys yra geltonos ir raudonos taškus žemėlapyje.

Perkelti pele per norėdami pamatyti stoties vardą.

Tada spustelėkite, norėdami matyti oro stebėjimo ir prognozės.

Norėdami pakeisti žemėlapį: spustelėkite ant žalios mygtukų su juodo kryžiaus žemyn,; žalią mygtuką su brūkšneliu, jei norite nutolinti; arba žalių rodyklių gretimoms žemėlapius.


METAR-TAF: